createdAt,value
2024-02-02T00:00:39.035Z,96335.00
2024-02-02T00:01:38.880Z,96337.00
2024-02-02T00:02:39.109Z,96341.00
2024-02-02T00:03:39.036Z,96340.00
2024-02-02T00:04:38.994Z,96335.00
2024-02-02T00:05:38.987Z,96330.00
2024-02-02T00:06:39.051Z,96326.00
2024-02-02T00:07:39.070Z,96326.00
2024-02-02T00:08:39.078Z,96327.00
2024-02-02T00:09:39.186Z,96326.00
2024-02-02T00:10:39.105Z,96324.00
2024-02-02T00:11:39.216Z,96321.00
2024-02-02T00:12:39.181Z,96319.00
2024-02-02T00:13:39.216Z,96321.00
2024-02-02T00:14:39.229Z,96323.00
2024-02-02T00:15:39.326Z,96323.00
2024-02-02T00:16:39.354Z,96325.00
2024-02-02T00:17:39.397Z,96325.00
2024-02-02T00:18:39.474Z,96327.00
2024-02-02T00:19:39.479Z,96329.00
2024-02-02T00:20:39.408Z,96330.00
2024-02-02T00:21:39.488Z,96331.00
2024-02-02T00:22:39.494Z,96330.00
2024-02-02T00:23:39.518Z,96328.00
2024-02-02T00:24:39.622Z,96331.00
2024-02-02T00:25:39.554Z,96330.00
2024-02-02T00:26:39.633Z,96327.00
2024-02-02T00:27:39.689Z,96329.00
2024-02-02T00:28:39.667Z,96329.00
2024-02-02T00:29:39.662Z,96330.00
2024-02-02T00:30:39.784Z,96329.00
2024-02-02T00:31:39.715Z,96330.00
2024-02-02T00:32:39.751Z,96328.00
2024-02-02T00:33:39.825Z,96331.00
2024-02-02T00:34:39.901Z,96332.00
2024-02-02T00:35:39.890Z,96333.00
2024-02-02T00:36:39.818Z,96333.00
2024-02-02T00:37:39.854Z,96339.00
2024-02-02T00:38:39.885Z,96342.00
2024-02-02T00:39:39.928Z,96345.00
2024-02-02T00:40:39.954Z,96348.00
2024-02-02T00:41:39.955Z,96348.00
2024-02-02T00:42:40.022Z,96349.00
2024-02-02T00:43:40.045Z,96351.00
2024-02-02T00:44:40.052Z,96353.00
2024-02-02T00:45:40.059Z,96355.00
2024-02-02T00:46:40.086Z,96354.00
2024-02-02T00:47:40.200Z,96354.00
2024-02-02T00:48:40.261Z,96356.00
2024-02-02T00:49:40.251Z,96353.00
2024-02-02T00:50:40.193Z,96353.00
2024-02-02T00:51:40.293Z,96352.00
2024-02-02T00:52:40.282Z,96351.00
2024-02-02T00:53:40.265Z,96354.00
2024-02-02T00:54:40.318Z,96355.00
2024-02-02T00:55:40.334Z,96356.00
2024-02-02T00:56:40.378Z,96353.00
2024-02-02T00:57:40.447Z,96355.00
2024-02-02T00:58:40.406Z,96354.00
2024-02-02T00:59:40.420Z,96359.00
2024-02-02T01:00:40.544Z,96362.00
2024-02-02T01:01:40.470Z,96362.00
2024-02-02T01:02:40.539Z,96362.00
2024-02-02T01:03:40.587Z,96359.00
2024-02-02T01:04:40.599Z,96356.00
2024-02-02T01:05:40.597Z,96353.00
2024-02-02T01:06:40.755Z,96355.00
2024-02-02T01:07:40.638Z,96358.00
2024-02-02T01:08:40.636Z,96357.00
2024-02-02T01:09:40.688Z,96358.00
2024-02-02T01:10:40.706Z,96360.00
2024-02-02T01:11:40.769Z,96361.00
2024-02-02T01:12:40.751Z,96357.00
2024-02-02T01:13:40.819Z,96358.00
2024-02-02T01:14:40.843Z,96358.00
2024-02-02T01:15:40.873Z,96360.00
2024-02-02T01:16:40.863Z,96361.00
2024-02-02T01:17:40.915Z,96364.00
2024-02-02T01:18:41.089Z,96367.00
2024-02-02T01:19:41.018Z,96368.00
2024-02-02T01:20:40.974Z,96370.00
2024-02-02T01:21:41.053Z,96367.00
2024-02-02T01:22:41.065Z,96364.00
2024-02-02T01:23:41.095Z,96362.00
2024-02-02T01:24:41.130Z,96361.00
2024-02-02T01:25:41.182Z,96359.00
2024-02-02T01:26:41.209Z,96358.00
2024-02-02T01:27:41.228Z,96359.00
2024-02-02T01:28:41.233Z,96358.00
2024-02-02T01:29:41.281Z,96364.00
2024-02-02T01:30:41.314Z,96367.00
2024-02-02T01:31:41.354Z,96370.00
2024-02-02T01:32:41.424Z,96374.00
2024-02-02T01:33:41.489Z,96373.00
2024-02-02T01:34:41.533Z,96374.00
2024-02-02T01:35:41.412Z,96371.00
2024-02-02T01:36:41.478Z,96367.00
2024-02-02T01:37:41.496Z,96368.00
2024-02-02T01:38:41.470Z,96367.00
2024-02-02T01:39:41.509Z,96369.00
2024-02-02T01:40:41.553Z,96369.00
2024-02-02T01:41:41.581Z,96371.00
2024-02-02T01:42:41.632Z,96370.00
2024-02-02T01:43:41.613Z,96368.00
2024-02-02T01:44:41.638Z,96370.00
2024-02-02T01:45:41.667Z,96368.00
2024-02-02T01:46:41.692Z,96369.00
2024-02-02T01:47:41.761Z,96375.00
2024-02-02T01:48:41.829Z,96380.00
2024-02-02T01:49:41.837Z,96382.00
2024-02-02T01:50:41.815Z,96382.00
2024-02-02T01:51:41.821Z,96382.00
2024-02-02T01:52:41.853Z,96379.00
2024-02-02T01:53:41.893Z,96378.00
2024-02-02T01:54:41.905Z,96379.00
2024-02-02T01:55:41.918Z,96381.00
2024-02-02T01:56:41.987Z,96379.00
2024-02-02T01:57:41.998Z,96383.00
2024-02-02T01:58:42.002Z,96380.00
2024-02-02T01:59:42.029Z,96381.00
2024-02-02T02:00:42.140Z,96382.00
2024-02-02T02:01:42.129Z,96383.00
2024-02-02T02:02:42.165Z,96383.00
2024-02-02T02:03:42.323Z,96380.00
2024-02-02T02:04:42.269Z,96379.00
2024-02-02T02:05:42.316Z,96378.00
2024-02-02T02:06:42.413Z,96376.00
2024-02-02T02:07:42.320Z,96379.00
2024-02-02T02:08:42.356Z,96379.00
2024-02-02T02:09:42.384Z,96381.00
2024-02-02T02:10:42.448Z,96378.00
2024-02-02T02:11:42.422Z,96375.00
2024-02-02T02:12:42.482Z,96377.00
2024-02-02T02:13:42.525Z,96372.00
2024-02-02T02:14:42.654Z,96369.00
2024-02-02T02:15:42.634Z,96368.00
2024-02-02T02:16:42.601Z,96370.00
2024-02-02T02:17:42.692Z,96371.00
2024-02-02T02:18:52.061Z,96369.00
2024-02-02T02:19:43.752Z,96366.00
2024-02-02T02:20:42.707Z,96363.00
2024-02-02T02:21:42.717Z,96359.00
2024-02-02T02:22:42.722Z,96359.00
2024-02-02T02:23:42.718Z,96361.00
2024-02-02T02:24:42.756Z,96359.00
2024-02-02T02:25:42.725Z,96358.00
2024-02-02T02:26:42.703Z,96354.00
2024-02-02T02:27:42.723Z,96352.00
2024-02-02T02:28:42.747Z,96347.00
2024-02-02T02:29:42.748Z,96347.00
2024-02-02T02:30:42.730Z,96346.00
2024-02-02T02:31:42.778Z,96346.00
2024-02-02T02:32:42.773Z,96348.00
2024-02-02T02:33:42.834Z,96348.00
2024-02-02T02:34:42.949Z,96346.00
2024-02-02T02:35:42.734Z,96346.00
2024-02-02T02:36:42.754Z,96346.00
2024-02-02T02:37:42.799Z,96345.00
2024-02-02T02:38:42.808Z,96346.00
2024-02-02T02:39:42.881Z,96347.00
2024-02-02T02:40:42.942Z,96349.00
2024-02-02T02:41:42.940Z,96351.00
2024-02-02T02:42:42.981Z,96349.00
2024-02-02T02:43:43.026Z,96347.00
2024-02-02T02:44:43.059Z,96343.00
2024-02-02T02:45:43.092Z,96342.00
2024-02-02T02:46:43.137Z,96341.00
2024-02-02T02:47:43.263Z,96340.00
2024-02-02T02:48:43.376Z,96342.00
2024-02-02T02:49:43.306Z,96343.00
2024-02-02T02:50:43.289Z,96342.00
2024-02-02T02:51:43.319Z,96342.00
2024-02-02T02:52:43.361Z,96336.00
2024-02-02T02:53:43.419Z,96334.00
2024-02-02T02:54:43.435Z,96332.00
2024-02-02T02:55:43.464Z,96331.00
2024-02-02T02:56:43.522Z,96333.00
2024-02-02T02:57:43.561Z,96333.00
2024-02-02T02:58:43.600Z,96335.00
2024-02-02T02:59:43.698Z,96334.00
2024-02-02T03:00:43.676Z,96333.00
2024-02-02T03:01:43.711Z,96332.00
2024-02-02T03:02:43.764Z,96329.00
2024-02-02T03:03:43.891Z,96330.00
2024-02-02T03:04:43.825Z,96330.00
2024-02-02T03:05:43.887Z,96332.00
2024-02-02T03:06:43.917Z,96333.00
2024-02-02T03:07:43.959Z,96334.00
2024-02-02T03:08:43.996Z,96333.00
2024-02-02T03:09:43.985Z,96331.00
2024-02-02T03:10:44.050Z,96331.00
2024-02-02T03:11:44.079Z,96332.00
2024-02-02T03:12:44.127Z,96334.00
2024-02-02T03:13:44.144Z,96336.00
2024-02-02T03:14:44.184Z,96337.00
2024-02-02T03:15:44.197Z,96337.00
2024-02-02T03:16:44.232Z,96336.00
2024-02-02T03:17:44.333Z,96337.00
2024-02-02T03:18:45.730Z,96336.00
2024-02-02T03:19:44.405Z,96335.00
2024-02-02T03:20:44.403Z,96337.00
2024-02-02T03:21:44.435Z,96338.00
2024-02-02T03:22:44.481Z,96341.00
2024-02-02T03:23:44.519Z,96343.00
2024-02-02T03:24:44.519Z,96344.00
2024-02-02T03:25:44.594Z,96346.00
2024-02-02T03:26:44.630Z,96346.00
2024-02-02T03:27:44.665Z,96348.00
2024-02-02T03:28:44.727Z,96347.00
2024-02-02T03:29:44.767Z,96348.00
2024-02-02T03:30:44.828Z,96347.00
2024-02-02T03:31:44.818Z,96350.00
2024-02-02T03:32:44.941Z,96350.00
2024-02-02T03:33:44.940Z,96350.00
2024-02-02T03:34:45.101Z,96351.00
2024-02-02T03:35:45.009Z,96349.00
2024-02-02T03:36:45.027Z,96348.00
2024-02-02T03:37:45.111Z,96350.00
2024-02-02T03:38:45.113Z,96351.00
2024-02-02T03:39:45.147Z,96351.00
2024-02-02T03:40:45.218Z,96353.00
2024-02-02T03:41:45.483Z,96353.00
2024-02-02T03:42:45.261Z,96353.00
2024-02-02T03:43:45.314Z,96355.00
2024-02-02T03:44:45.333Z,96356.00
2024-02-02T03:45:45.392Z,96358.00
2024-02-02T03:46:45.411Z,96362.00
2024-02-02T03:47:45.440Z,96361.00
2024-02-02T03:48:45.524Z,96363.00
2024-02-02T03:49:45.564Z,96363.00
2024-02-02T03:50:45.573Z,96362.00
2024-02-02T03:51:45.596Z,96363.00
2024-02-02T03:52:45.646Z,96363.00
2024-02-02T03:53:45.705Z,96365.00
2024-02-02T03:54:45.741Z,96366.00
2024-02-02T03:55:45.789Z,96364.00
2024-02-02T03:56:45.816Z,96366.00
2024-02-02T03:57:45.849Z,96366.00
2024-02-02T03:58:45.891Z,96367.00
2024-02-02T03:59:45.975Z,96369.00
2024-02-02T04:00:46.072Z,96369.00
2024-02-02T04:01:46.038Z,96370.00
2024-02-02T04:02:46.098Z,96370.00
2024-02-02T04:03:46.207Z,96367.00
2024-02-02T04:04:46.184Z,96366.00
2024-02-02T04:05:46.247Z,96365.00
2024-02-02T04:06:46.244Z,96364.00
2024-02-02T04:07:46.333Z,96364.00
2024-02-02T04:08:46.369Z,96361.00
2024-02-02T04:09:46.377Z,96364.00
2024-02-02T04:10:46.420Z,96364.00
2024-02-02T04:11:46.443Z,96364.00
2024-02-02T04:12:46.520Z,96365.00
2024-02-02T04:13:46.575Z,96367.00
2024-02-02T04:14:46.617Z,96370.00
2024-02-02T04:15:46.649Z,96368.00
2024-02-02T04:16:46.682Z,96371.00
2024-02-02T04:17:46.748Z,96372.00
2024-02-02T04:18:46.867Z,96374.00
2024-02-02T04:19:46.854Z,96375.00
2024-02-02T04:20:46.848Z,96373.00
2024-02-02T04:21:46.905Z,96372.00
2024-02-02T04:22:46.937Z,96370.00
2024-02-02T04:23:47.004Z,96376.00
2024-02-02T04:24:47.055Z,96376.00
2024-02-02T04:25:47.094Z,96376.00
2024-02-02T04:26:47.102Z,96374.00
2024-02-02T04:27:54.309Z,96376.00
2024-02-02T04:28:54.309Z,96374.00
2024-02-02T04:29:54.332Z,96370.00
2024-02-02T04:30:54.351Z,96370.00
2024-02-02T04:32:01.592Z,96369.00
2024-02-02T04:33:01.729Z,96367.00
2024-02-02T04:34:01.667Z,96366.00
2024-02-02T04:35:01.590Z,96367.00
2024-02-02T04:36:01.642Z,96368.00
2024-02-02T04:37:01.578Z,96368.00
2024-02-02T04:38:01.563Z,96369.00
2024-02-02T04:39:01.600Z,96367.00
2024-02-02T04:40:01.604Z,96366.00
2024-02-02T04:41:01.557Z,96369.00
2024-02-02T04:42:01.591Z,96368.00
2024-02-02T04:43:01.655Z,96367.00
2024-02-02T04:44:01.578Z,96370.00
2024-02-02T04:45:01.671Z,96371.00
2024-02-02T04:46:01.587Z,96368.00
2024-02-02T04:47:01.591Z,96369.00
2024-02-02T04:48:01.660Z,96367.00
2024-02-02T04:49:01.718Z,96365.00
2024-02-02T04:50:01.589Z,96365.00
2024-02-02T04:51:01.593Z,96363.00
2024-02-02T04:52:01.608Z,96365.00
2024-02-02T04:53:01.624Z,96365.00
2024-02-02T04:54:01.617Z,96364.00
2024-02-02T04:55:01.579Z,96365.00
2024-02-02T04:56:01.594Z,96363.00
2024-02-02T04:57:01.604Z,96364.00
2024-02-02T04:58:01.636Z,96365.00
2024-02-02T04:59:01.618Z,96365.00
2024-02-02T05:00:01.653Z,96364.00
2024-02-02T05:01:01.621Z,96364.00
2024-02-02T05:02:04.978Z,96361.00
2024-02-02T05:03:01.639Z,96359.00
2024-02-02T05:04:01.712Z,96359.00
2024-02-02T05:05:01.606Z,96360.00
2024-02-02T05:06:01.678Z,96360.00
2024-02-02T05:07:01.606Z,96363.00
2024-02-02T05:08:01.654Z,96364.00
2024-02-02T05:09:01.635Z,96365.00
2024-02-02T05:10:01.723Z,96364.00
2024-02-02T05:11:01.592Z,96364.00
2024-02-02T05:12:01.633Z,96364.00
2024-02-02T05:13:01.677Z,96363.00
2024-02-02T05:14:01.646Z,96363.00
2024-02-02T05:15:01.701Z,96366.00
2024-02-02T05:16:01.614Z,96366.00
2024-02-02T05:17:01.615Z,96366.00
2024-02-02T05:18:01.722Z,96370.00
2024-02-02T05:19:01.904Z,96370.00
2024-02-02T05:20:01.644Z,96371.00
2024-02-02T05:21:01.693Z,96373.00
2024-02-02T05:22:01.679Z,96373.00
2024-02-02T05:23:01.723Z,96374.00
2024-02-02T05:24:10.119Z,96375.00
2024-02-02T05:25:02.839Z,96378.00
2024-02-02T05:26:01.792Z,96383.00
2024-02-02T05:27:01.775Z,96384.00
2024-02-02T05:28:01.824Z,96384.00
2024-02-02T05:29:01.780Z,96384.00
2024-02-02T05:30:01.876Z,96384.00
2024-02-02T05:31:01.781Z,96382.00
2024-02-02T05:32:01.752Z,96383.00
2024-02-02T05:33:02.328Z,96385.00
2024-02-02T05:34:01.947Z,96388.00
2024-02-02T05:35:02.009Z,96390.00
2024-02-02T05:36:01.849Z,96394.00
2024-02-02T05:37:01.818Z,96394.00
2024-02-02T05:38:01.803Z,96397.00
2024-02-02T05:39:01.786Z,96399.00
2024-02-02T05:40:01.784Z,96400.00
2024-02-02T05:41:01.858Z,96405.00
2024-02-02T05:42:01.915Z,96406.00
2024-02-02T05:43:01.979Z,96406.00
2024-02-02T05:44:01.939Z,96409.00
2024-02-02T05:45:02.012Z,96411.00
2024-02-02T05:46:02.006Z,96413.00
2024-02-02T05:47:02.038Z,96413.00
2024-02-02T05:48:02.133Z,96413.00
2024-02-02T05:49:02.197Z,96413.00
2024-02-02T05:50:02.188Z,96414.00
2024-02-02T05:51:02.281Z,96416.00
2024-02-02T05:52:02.245Z,96418.00
2024-02-02T05:53:02.239Z,96418.00
2024-02-02T05:54:02.287Z,96419.00
2024-02-02T05:55:02.340Z,96424.00
2024-02-02T05:56:02.371Z,96428.00
2024-02-02T05:57:02.432Z,96425.00
2024-02-02T05:58:02.406Z,96428.00
2024-02-02T05:59:02.435Z,96429.00
2024-02-02T06:00:02.668Z,96430.00
2024-02-02T06:01:02.565Z,96432.00
2024-02-02T06:02:02.566Z,96432.00
2024-02-02T06:03:02.615Z,96434.00
2024-02-02T06:04:02.706Z,96433.00
2024-02-02T06:05:02.647Z,96432.00
2024-02-02T06:06:02.727Z,96430.00
2024-02-02T06:07:02.856Z,96430.00
2024-02-02T06:08:02.785Z,96429.00
2024-02-02T06:09:02.767Z,96431.00
2024-02-02T06:10:02.778Z,96434.00
2024-02-02T06:11:02.819Z,96436.00
2024-02-02T06:12:02.861Z,96443.00
2024-02-02T06:13:02.903Z,96440.00
2024-02-02T06:14:02.858Z,96442.00
2024-02-02T06:15:02.963Z,96445.00
2024-02-02T06:16:02.993Z,96448.00
2024-02-02T06:17:02.988Z,96449.00
2024-02-02T06:18:03.104Z,96453.00
2024-02-02T06:19:03.132Z,96458.00
2024-02-02T06:20:03.190Z,96459.00
2024-02-02T06:21:03.069Z,96459.00
2024-02-02T06:22:03.078Z,96466.00
2024-02-02T06:23:04.281Z,96464.00
2024-02-02T06:24:03.156Z,96470.00
2024-02-02T06:25:03.198Z,96471.00
2024-02-02T06:26:03.196Z,96469.00
2024-02-02T06:27:03.259Z,96474.00
2024-02-02T06:28:03.261Z,96475.00
2024-02-02T06:29:03.270Z,96475.00
2024-02-02T06:30:03.402Z,96475.00
2024-02-02T06:31:03.305Z,96479.00
2024-02-02T06:32:03.336Z,96484.00
2024-02-02T06:33:03.462Z,96484.00
2024-02-02T06:34:03.436Z,96491.00
2024-02-02T06:35:03.415Z,96485.00
2024-02-02T06:36:03.493Z,96486.00
2024-02-02T06:37:03.464Z,96495.00
2024-02-02T06:38:03.474Z,96489.00
2024-02-02T06:39:03.519Z,96495.00
2024-02-02T06:40:03.536Z,96492.00
2024-02-02T06:41:03.552Z,96494.00
2024-02-02T06:42:03.628Z,96488.00
2024-02-02T06:43:03.600Z,96489.00
2024-02-02T06:44:03.642Z,96486.00
2024-02-02T06:45:03.735Z,96493.00
2024-02-02T06:46:03.676Z,96495.00
2024-02-02T06:47:03.701Z,96500.00
2024-02-02T06:48:03.823Z,96494.00
2024-02-02T06:49:03.738Z,96492.00
2024-02-02T06:50:03.739Z,96488.00
2024-02-02T06:51:05.546Z,96491.00
2024-02-02T06:52:03.845Z,96491.00
2024-02-02T06:53:03.900Z,96492.00
2024-02-02T06:54:04.034Z,96495.00
2024-02-02T06:55:04.069Z,96496.00
2024-02-02T06:56:04.188Z,96496.00
2024-02-02T06:57:04.185Z,96494.00
2024-02-02T06:58:04.215Z,96493.00
2024-02-02T06:59:04.273Z,96492.00
2024-02-02T07:00:04.459Z,96493.00
2024-02-02T07:01:04.507Z,96493.00
2024-02-02T07:02:04.471Z,96499.00
2024-02-02T07:03:04.720Z,96495.00
2024-02-02T07:04:04.665Z,96494.00
2024-02-02T07:05:04.579Z,96496.00
2024-02-02T07:06:04.687Z,96499.00
2024-02-02T07:07:04.772Z,96499.00
2024-02-02T07:08:04.707Z,96501.00
2024-02-02T07:09:04.792Z,96503.00
2024-02-02T07:10:04.748Z,96501.00
2024-02-02T07:11:05.718Z,96499.00
2024-02-02T07:12:04.930Z,96498.00
2024-02-02T07:13:04.883Z,96497.00
2024-02-02T07:14:04.848Z,96496.00
2024-02-02T07:15:04.974Z,96495.00
2024-02-02T07:16:04.966Z,96497.00
2024-02-02T07:17:04.925Z,96501.00
2024-02-02T07:18:05.018Z,96501.00
2024-02-02T07:19:05.096Z,96504.00
2024-02-02T07:20:05.029Z,96505.00
2024-02-02T07:21:05.018Z,96502.00
2024-02-02T07:22:05.014Z,96504.00
2024-02-02T07:23:05.078Z,96501.00
2024-02-02T07:24:05.138Z,96502.00
2024-02-02T07:25:05.034Z,96502.00
2024-02-02T07:26:05.100Z,96503.00
2024-02-02T07:27:05.810Z,96504.00
2024-02-02T07:28:05.139Z,96505.00
2024-02-02T07:29:05.126Z,96508.00
2024-02-02T07:30:05.164Z,96508.00
2024-02-02T07:31:05.180Z,96509.00
2024-02-02T07:32:05.212Z,96510.00
2024-02-02T07:33:05.331Z,96513.00
2024-02-02T07:34:05.345Z,96506.00
2024-02-02T07:35:05.431Z,96508.00
2024-02-02T07:36:05.325Z,96510.00
2024-02-02T07:37:05.312Z,96508.00
2024-02-02T07:38:05.329Z,96505.00
2024-02-02T07:39:05.406Z,96510.00
2024-02-02T07:40:05.387Z,96509.00
2024-02-02T07:41:05.387Z,96511.00
2024-02-02T07:42:05.492Z,96507.00
2024-02-02T07:43:05.481Z,96507.00
2024-02-02T07:44:05.467Z,96508.00
2024-02-02T07:45:05.534Z,96512.00
2024-02-02T07:46:09.105Z,96514.00
2024-02-02T07:47:06.528Z,96522.00
2024-02-02T07:48:05.648Z,96520.00
2024-02-02T07:49:05.732Z,96517.00
2024-02-02T07:50:05.514Z,96522.00
2024-02-02T07:51:05.540Z,96519.00
2024-02-02T07:52:05.529Z,96521.00
2024-02-02T07:53:05.516Z,96523.00
2024-02-02T07:54:05.544Z,96523.00
2024-02-02T07:55:05.540Z,96522.00
2024-02-02T07:56:05.516Z,96522.00
2024-02-02T07:57:05.560Z,96521.00
2024-02-02T07:58:05.507Z,96521.00
2024-02-02T07:59:06.233Z,96519.00
2024-02-02T08:00:05.561Z,96518.00
2024-02-02T08:01:05.565Z,96517.00
2024-02-02T08:02:05.546Z,96521.00
2024-02-02T08:03:05.657Z,96523.00
2024-02-02T08:04:05.775Z,96525.00
2024-02-02T08:05:05.558Z,96528.00
2024-02-02T08:06:06.722Z,96525.00
2024-02-02T08:07:05.750Z,96524.00
2024-02-02T08:08:05.705Z,96523.00
2024-02-02T08:09:05.815Z,96525.00
2024-02-02T08:10:05.829Z,96526.00
2024-02-02T08:11:05.956Z,96532.00
2024-02-02T08:12:06.003Z,96535.00
2024-02-02T08:13:06.068Z,96537.00
2024-02-02T08:14:06.074Z,96539.00
2024-02-02T08:15:06.196Z,96539.00
2024-02-02T08:16:06.249Z,96539.00
2024-02-02T08:17:06.290Z,96547.00
2024-02-02T08:18:06.515Z,96541.00
2024-02-02T08:19:06.509Z,96542.00
2024-02-02T08:20:06.529Z,96542.00
2024-02-02T08:21:06.599Z,96538.00
2024-02-02T08:22:06.636Z,96537.00
2024-02-02T08:23:06.730Z,96538.00
2024-02-02T08:24:06.817Z,96541.00
2024-02-02T08:25:06.844Z,96544.00
2024-02-02T08:26:06.917Z,96543.00
2024-02-02T08:27:07.000Z,96540.00
2024-02-02T08:28:07.044Z,96540.00
2024-02-02T08:29:07.119Z,96542.00
2024-02-02T08:30:07.223Z,96538.00
2024-02-02T08:31:07.259Z,96539.00
2024-02-02T08:32:07.318Z,96540.00
2024-02-02T08:33:07.499Z,96541.00
2024-02-02T08:34:07.475Z,96541.00
2024-02-02T08:35:07.488Z,96541.00
2024-02-02T08:36:07.592Z,96540.00
2024-02-02T08:37:07.627Z,96542.00
2024-02-02T08:38:07.682Z,96549.00
2024-02-02T08:39:07.713Z,96546.00
2024-02-02T08:40:07.755Z,96543.00
2024-02-02T08:41:07.908Z,96542.00
2024-02-02T08:42:08.341Z,96546.00
2024-02-02T08:43:07.973Z,96547.00
2024-02-02T08:44:08.021Z,96550.00
2024-02-02T08:45:08.083Z,96549.00
2024-02-02T08:46:08.112Z,96547.00
2024-02-02T08:47:08.158Z,96542.00
2024-02-02T08:48:08.254Z,96539.00
2024-02-02T08:49:08.321Z,96537.00
2024-02-02T08:50:08.318Z,96538.00
2024-02-02T08:51:08.332Z,96540.00
2024-02-02T08:52:08.388Z,96539.00
2024-02-02T08:53:08.438Z,96536.00
2024-02-02T08:54:08.573Z,96536.00
2024-02-02T08:55:08.533Z,96540.00
2024-02-02T08:56:08.533Z,96535.00
2024-02-02T08:57:08.635Z,96533.00
2024-02-02T08:58:08.634Z,96536.00
2024-02-02T08:59:08.662Z,96536.00
2024-02-02T09:00:08.706Z,96535.00
2024-02-02T09:01:08.739Z,96533.00
2024-02-02T09:02:08.749Z,96531.00
2024-02-02T09:03:09.029Z,96525.00
2024-02-02T09:04:08.808Z,96521.00
2024-02-02T09:05:08.774Z,96520.00
2024-02-02T09:06:08.888Z,96515.00
2024-02-02T09:07:08.906Z,96516.00
2024-02-02T09:08:08.957Z,96516.00
2024-02-02T09:09:09.030Z,96518.00
2024-02-02T09:10:09.087Z,96515.00
2024-02-02T09:11:09.082Z,96515.00
2024-02-02T09:12:09.190Z,96516.00
2024-02-02T09:13:09.178Z,96518.00
2024-02-02T09:14:09.342Z,96519.00
2024-02-02T09:15:09.360Z,96520.00
2024-02-02T09:16:09.400Z,96519.00
2024-02-02T09:17:09.459Z,96518.00
2024-02-02T09:18:09.606Z,96515.00
2024-02-02T09:19:09.595Z,96514.00
2024-02-02T09:20:09.712Z,96514.00
2024-02-02T09:21:09.628Z,96514.00
2024-02-02T09:22:09.594Z,96511.00
2024-02-02T09:23:09.659Z,96512.00
2024-02-02T09:24:09.724Z,96513.00
2024-02-02T09:25:09.746Z,96508.00
2024-02-02T09:26:09.790Z,96510.00
2024-02-02T09:27:09.810Z,96511.00
2024-02-02T09:28:09.790Z,96513.00
2024-02-02T09:29:09.788Z,96511.00
2024-02-02T09:30:09.862Z,96512.00
2024-02-02T09:31:09.902Z,96511.00
2024-02-02T09:32:09.879Z,96513.00
2024-02-02T09:33:10.039Z,96504.00
2024-02-02T09:34:10.138Z,96500.00
2024-02-02T09:35:09.913Z,96500.00
2024-02-02T09:36:09.960Z,96501.00
2024-02-02T09:37:09.982Z,96502.00
2024-02-02T09:38:10.036Z,96502.00
2024-02-02T09:39:10.141Z,96503.00
2024-02-02T09:40:10.044Z,96502.00
2024-02-02T09:41:10.080Z,96499.00
2024-02-02T09:42:10.135Z,96497.00
2024-02-02T09:43:10.157Z,96493.00
2024-02-02T09:44:10.215Z,96490.00
2024-02-02T09:45:10.273Z,96488.00
2024-02-02T09:46:10.269Z,96489.00
2024-02-02T09:47:10.440Z,96494.00
2024-02-02T09:48:10.602Z,96498.00
2024-02-02T09:49:10.577Z,96493.00
2024-02-02T09:50:10.616Z,96494.00
2024-02-02T09:51:10.614Z,96494.00
2024-02-02T09:52:10.570Z,96494.00
2024-02-02T09:53:10.607Z,96491.00
2024-02-02T09:54:10.698Z,96495.00
2024-02-02T09:55:10.763Z,96490.00
2024-02-02T09:56:10.810Z,96492.00
2024-02-02T09:57:10.899Z,96495.00
2024-02-02T09:58:10.914Z,96498.00
2024-02-02T09:59:10.985Z,96498.00
2024-02-02T10:00:11.056Z,96498.00
2024-02-02T10:01:11.056Z,96495.00
2024-02-02T10:02:11.110Z,96494.00
2024-02-02T10:03:11.182Z,96490.00
2024-02-02T10:04:12.761Z,96492.00
2024-02-02T10:05:11.956Z,96495.00
2024-02-02T10:06:11.326Z,96499.00
2024-02-02T10:07:11.311Z,96501.00
2024-02-02T10:08:11.287Z,96503.00
2024-02-02T10:09:11.343Z,96500.00
2024-02-02T10:10:11.338Z,96499.00
2024-02-02T10:11:11.433Z,96499.00
2024-02-02T10:12:11.502Z,96499.00
2024-02-02T10:13:11.792Z,96501.00
2024-02-02T10:14:11.596Z,96499.00
2024-02-02T10:15:11.683Z,96496.00
2024-02-02T10:16:11.859Z,96491.00
2024-02-02T10:17:11.725Z,96494.00
2024-02-02T10:18:11.945Z,96501.00
2024-02-02T10:19:11.949Z,96504.00
2024-02-02T10:20:11.905Z,96504.00
2024-02-02T10:21:11.982Z,96506.00
2024-02-02T10:22:11.993Z,96506.00
2024-02-02T10:23:12.013Z,96504.00
2024-02-02T10:24:17.959Z,96509.00
2024-02-02T10:25:13.030Z,96511.00
2024-02-02T10:26:12.049Z,96514.00
2024-02-02T10:27:12.003Z,96513.00
2024-02-02T10:28:12.047Z,96513.00
2024-02-02T10:29:11.996Z,96508.00
2024-02-02T10:30:12.083Z,96511.00
2024-02-02T10:31:12.035Z,96509.00
2024-02-02T10:32:12.004Z,96510.00
2024-02-02T10:33:12.147Z,96506.00
2024-02-02T10:34:12.124Z,96503.00
2024-02-02T10:35:12.010Z,96500.00
2024-02-02T10:36:12.017Z,96500.00
2024-02-02T10:37:12.041Z,96499.00
2024-02-02T10:38:12.089Z,96501.00
2024-02-02T10:39:13.689Z,96499.00
2024-02-02T10:40:12.223Z,96503.00
2024-02-02T10:41:12.264Z,96500.00
2024-02-02T10:42:12.432Z,96503.00
2024-02-02T10:43:12.383Z,96498.00
2024-02-02T10:44:12.386Z,96490.00
2024-02-02T10:45:12.467Z,96488.00
2024-02-02T10:46:12.497Z,96484.00
2024-02-02T10:47:12.501Z,96484.00
2024-02-02T10:49:12.689Z,96487.00
2024-02-02T10:50:12.686Z,96484.00
2024-02-02T10:51:12.692Z,96483.00
2024-02-02T10:52:12.652Z,96483.00
2024-02-02T10:53:12.717Z,96481.00
2024-02-02T10:54:12.710Z,96479.00
2024-02-02T10:55:12.701Z,96475.00
2024-02-02T10:56:12.786Z,96472.00
2024-02-02T10:57:12.892Z,96471.00
2024-02-02T10:58:12.914Z,96468.00
2024-02-02T10:59:12.938Z,96466.00
2024-02-02T11:00:13.027Z,96468.00
2024-02-02T11:01:13.155Z,96462.00
2024-02-02T11:02:12.985Z,96462.00
2024-02-02T11:03:13.089Z,96459.00
2024-02-02T11:04:13.248Z,96455.00
2024-02-02T11:05:13.058Z,96448.00
2024-02-02T11:06:13.190Z,96445.00
2024-02-02T11:07:13.259Z,96445.00
2024-02-02T11:08:13.225Z,96448.00
2024-02-02T11:09:13.311Z,96448.00
2024-02-02T11:10:13.337Z,96446.00
2024-02-02T11:11:13.461Z,96443.00
2024-02-02T11:12:13.514Z,96439.00
2024-02-02T11:13:13.581Z,96437.00
2024-02-02T11:14:13.652Z,96434.00
2024-02-02T11:15:13.749Z,96431.00
2024-02-02T11:16:13.779Z,96427.00
2024-02-02T11:17:13.845Z,96423.00
2024-02-02T11:18:14.017Z,96425.00
2024-02-02T11:19:14.019Z,96425.00
2024-02-02T11:20:14.016Z,96427.00
2024-02-02T11:21:14.120Z,96428.00
2024-02-02T11:22:14.164Z,96426.00
2024-02-02T11:23:14.341Z,96419.00
2024-02-02T11:24:14.316Z,96411.00
2024-02-02T11:25:14.461Z,96406.00
2024-02-02T11:26:14.368Z,96404.00
2024-02-02T11:27:14.413Z,96402.00
2024-02-02T11:28:14.496Z,96404.00
2024-02-02T11:29:14.546Z,96407.00
2024-02-02T11:30:14.670Z,96409.00
2024-02-02T11:31:14.669Z,96414.00
2024-02-02T11:32:14.709Z,96412.00
2024-02-02T11:33:14.926Z,96406.00
2024-02-02T11:34:14.968Z,96407.00
2024-02-02T11:35:14.936Z,96405.00
2024-02-02T11:36:15.050Z,96405.00
2024-02-02T11:37:15.048Z,96407.00
2024-02-02T11:38:15.138Z,96408.00
2024-02-02T11:39:15.177Z,96415.00
2024-02-02T11:40:15.189Z,96416.00
2024-02-02T11:41:15.196Z,96414.00
2024-02-02T11:42:15.237Z,96412.00
2024-02-02T11:43:15.338Z,96413.00
2024-02-02T11:44:15.368Z,96414.00
2024-02-02T11:45:15.444Z,96414.00
2024-02-02T11:46:15.482Z,96411.00